Time;durP1;ratioP1;P1;durP2;ratioP2;P2;SDS_P1;SDS_P2;PMS_P1;PMS_P2;Temp;Humidity;BMP_temperature;BMP_pressure;BME280_temperature;BME280_humidity;BME280_pressure;Samples;Min_cycle;Max_cycle;Signal;HPM_P1;HPM_P2
2022/11/14 00:00:09;;;;;;;937.50;873.67;;;;;;;9.67;67.50;101941.41;694240;28;136035;-64
2022/11/14 00:00:49;;;;;;;922.05;858.75;;;;;;;9.69;67.65;101939.41;694025;28;137898;-63
2022/11/14 00:01:30;;;;;;;928.05;864.47;;;;;;;9.68;67.78;101937.69;691421;28;137729;-64
2022/11/14 00:02:10;;;;;;;928.78;865.17;;;;;;;9.69;67.75;101942.09;691390;28;137232;-63
2022/11/14 00:02:50;;;;;;;924.30;860.83;;;;;;;9.69;67.50;101943.94;691383;28;135946;-64
2022/11/14 00:03:30;;;;;;;935.53;871.67;;;;;;;9.71;67.83;101940.09;691460;28;137484;-64
2022/11/14 00:04:10;;;;;;;919.50;856.20;;;;;;;9.68;67.73;101931.44;691507;28;157136;-64
2022/11/14 00:04:51;;;;;;;930.10;866.33;;;;;;;9.62;67.95;101923.91;693192;28;136267;-62
2022/11/14 00:05:30;;;;;;;937.65;873.75;;;;;;;9.69;67.86;101935.84;694089;28;135812;-65
2022/11/14 00:06:12;;;;;;;945.75;881.50;;;;;;;9.69;67.80;101935.84;691202;28;137810;-63
2022/11/14 00:06:51;;;;;;;944.90;880.75;;;;;;;9.68;67.78;101932.28;690593;28;161224;-63
2022/11/14 00:07:32;;;;;;;912.83;849.67;;;;;;;9.68;67.83;101943.09;691289;28;137611;-63
2022/11/14 00:08:15;;;;;;;939.30;875.30;;;;;;;9.61;67.82;101919.50;691342;28;135996;-63
2022/11/14 00:08:56;;;;;;;944.60;880.47;;;;;;;9.69;67.50;101931.31;690559;28;157139;-63
2022/11/14 00:09:37;;;;;;;925.40;861.88;;;;;;;9.69;67.52;101930.47;690425;28;161635;-63
2022/11/14 00:10:17;;;;;;;946.22;882.00;;;;;;;9.69;67.88;101935.84;688494;28;137520;-63
2022/11/14 00:10:58;;;;;;;926.65;862.83;;;;;;;9.68;68.04;101937.69;688335;28;137174;-62
2022/11/14 00:11:39;;;;;;;948.50;884.25;;;;;;;9.67;67.66;101925.22;688571;28;135894;-63
2022/11/14 00:12:19;;;;;;;931.95;868.25;;;;;;;9.68;68.15;101926.06;689667;28;135770;-62
2022/11/14 00:13:00;;;;;;;936.25;872.33;;;;;;;9.68;67.70;101928.75;691336;28;138421;-63
2022/11/14 00:13:39;;;;;;;932.42;868.75;;;;;;;9.67;67.96;101929.72;690895;28;137263;-64
2022/11/14 00:14:21;;;;;;;938.90;875.10;;;;;;;9.68;67.85;101934.16;691385;28;137478;-63
2022/11/14 00:15:00;;;;;;;919.65;856.50;;;;;;;9.68;67.81;101932.28;691327;28;137687;-63
2022/11/14 00:15:40;;;;;;;942.17;878.10;;;;;;;9.68;68.16;101928.75;691172;28;135825;-62
2022/11/14 00:16:21;;;;;;;933.33;869.60;;;;;;;9.68;67.93;101928.75;691102;28;137266;-63
2022/11/14 00:17:01;;;;;;;933.88;869.88;;;;;;;9.70;67.72;101926.75;691113;28;137451;-63
2022/11/14 00:17:41;;;;;;;927.78;864.25;;;;;;;9.70;68.00;101930.31;694096;28;137820;-63
2022/11/14 00:18:22;;;;;;;924.15;860.65;;;;;;;9.70;68.03;101922.22;696065;28;74873;-64
2022/11/14 00:19:03;;;;;;;937.38;873.47;;;;;;;9.72;67.97;101924.78;693349;28;157004;-63
2022/11/14 00:19:46;;;;;;;936.67;872.78;;;;;;;9.71;67.70;101928.47;694092;28;136918;-63
2022/11/14 00:20:28;;;;;;;913.80;850.72;;;;;;;9.71;68.12;101931.16;694178;28;100460;-62
2022/11/14 00:21:08;;;;;;;937.83;873.92;;;;;;;9.71;67.90;101928.47;691477;28;135994;-63
2022/11/14 00:21:48;;;;;;;934.15;870.45;;;;;;;9.69;67.95;101923.22;691325;28;137352;-63
2022/11/14 00:22:29;;;;;;;920.83;857.47;;;;;;;9.69;68.08;101925.06;690046;28;96308;-63
2022/11/14 00:23:09;;;;;;;930.15;866.55;;;;;;;9.69;67.94;101919.66;688695;28;137533;-63
2022/11/14 00:23:49;;;;;;;916.88;853.65;;;;;;;9.68;68.14;101920.66;688240;28;135768;-63
2022/11/14 00:24:30;;;;;;;937.40;873.65;;;;;;;9.66;67.75;101920.78;688643;28;136057;-62
2022/11/14 00:25:10;;;;;;;914.55;851.38;;;;;;;9.66;67.79;101914.56;690401;28;137330;-63
2022/11/14 00:25:49;;;;;;;928.58;864.97;;;;;;;9.66;68.17;101923.50;693903;28;135779;-63
2022/11/14 00:26:33;;;;;;;933.85;870.03;;;;;;;9.64;68.09;101911.13;693122;28;160699;-63
2022/11/14 00:27:12;;;;;;;924.63;861.13;;;;;;;9.65;68.28;101916.38;691087;28;136208;-63
2022/11/14 00:27:56;;;;;;;933.38;869.55;;;;;;;9.67;67.92;101917.13;691287;28;136095;-63
2022/11/14 00:28:36;;;;;;;927.70;864.08;;;;;;;9.68;68.15;101921.50;690990;28;131276;-63
2022/11/14 00:29:17;;;;;;;935.70;871.78;;;;;;;9.67;67.99;101919.81;691429;28;137619;-63
2022/11/14 00:29:57;;;;;;;922.83;859.42;;;;;;;9.66;68.32;101910.00;691386;28;137544;-63
2022/11/14 00:30:37;;;;;;;947.85;883.67;;;;;;;9.65;68.02;101919.09;691323;28;137701;-63
2022/11/14 00:31:17;;;;;;;929.15;865.55;;;;;;;9.63;67.91;101909.44;691398;28;137703;-63
2022/11/14 00:31:57;;;;;;;937.17;873.33;;;;;;;9.65;68.28;101912.84;690526;28;160635;-63
2022/11/14 00:32:38;;;;;;;920.47;857.25;;;;;;;9.64;67.93;101913.84;691236;28;137657;-63
2022/11/14 00:33:18;;;;;;;920.40;857.10;;;;;;;9.62;68.42;101907.72;690539;28;160940;-63
2022/11/14 00:33:59;;;;;;;934.45;870.67;;;;;;;9.63;68.00;101906.75;690520;28;157367;-63
2022/11/14 00:34:39;;;;;;;932.17;868.38;;;;;;;9.61;68.23;101904.19;691227;28;138072;-63
2022/11/14 00:35:19;;;;;;;914.78;851.50;;;;;;;9.61;68.27;101903.31;688556;28;137758;-64
2022/11/14 00:35:59;;;;;;;944.45;880.30;;;;;;;9.60;68.37;101901.63;688660;28;136165;-63
2022/11/14 00:36:43;;;;;;;933.97;870.20;;;;;;;9.61;68.35;101904.19;693307;28;60132;-63
2022/11/14 00:37:24;;;;;;;918.03;854.53;;;;;;;9.60;68.05;101897.09;696705;28;61401;-64
2022/11/14 00:38:04;;;;;;;946.13;881.92;;;;;;;9.61;68.00;101900.63;688506;28;137340;-64
2022/11/14 00:38:44;;;;;;;916.22;852.97;;;;;;;9.59;68.16;101891.84;688716;28;137355;-64
2022/11/14 00:39:25;;;;;;;918.00;854.78;;;;;;;9.62;68.21;101891.56;690686;28;92162;-63
2022/11/14 00:40:05;;;;;;;932.03;868.22;;;;;;;9.60;68.14;101894.38;691155;28;137714;-64
2022/11/14 00:40:47;;;;;;;929.30;865.70;;;;;;;9.62;68.27;101899.66;694581;28;62314;-63
2022/11/14 00:41:27;;;;;;;933.35;869.63;;;;;;;9.58;68.08;101893.69;691790;28;137568;-63
2022/11/14 00:42:08;;;;;;;931.75;868.15;;;;;;;9.62;68.39;101888.84;691985;28;137320;-64
2022/11/14 00:42:50;;;;;;;923.97;860.47;;;;;;;9.63;67.92;101895.97;694339;28;61697;-63
2022/11/14 00:43:30;;;;;;;934.72;870.88;;;;;;;9.61;67.96;101898.81;689114;28;137831;-64
2022/11/14 00:44:10;;;;;;;918.25;854.85;;;;;;;9.61;68.35;101896.09;688534;28;156323;-63
2022/11/14 00:44:51;;;;;;;940.42;876.28;;;;;;;9.55;68.21;101894.81;691185;28;138378;-63
2022/11/14 00:45:38;;;;;;;924.05;860.47;;;;;;;9.57;68.00;101891.97;697126;28;62203;-63
2022/11/14 00:46:18;;;;;;;923.17;859.72;;;;;;;9.55;68.04;101894.81;694551;28;137583;-63
2022/11/14 00:46:58;;;;;;;937.85;873.72;;;;;;;9.57;68.36;101900.06;688754;28;137809;-63
2022/11/14 00:47:38;;;;;;;931.03;867.28;;;;;;;9.57;68.30;101890.13;688825;28;137435;-64
2022/11/14 00:48:19;;;;;;;921.50;858.10;;;;;;;9.57;68.37;101894.69;688150;28;161590;-63
2022/11/14 00:48:58;;;;;;;935.72;871.80;;;;;;;9.59;68.41;101900.78;680172;28;179978;-63
2022/11/14 00:49:38;;;;;;;927.42;863.72;;;;;;;9.60;68.39;101893.56;692252;28;137893;-63
2022/11/14 00:50:19;;;;;;;939.30;875.45;;;;;;;9.56;68.15;101893.84;694469;28;137417;-64
2022/11/14 00:50:58;;;;;;;938.22;874.42;;;;;;;9.57;68.30;101898.22;694593;28;137473;-64
2022/11/14 00:51:38;;;;;;;921.08;857.65;;;;;;;9.56;68.25;101899.22;694372;28;137512;-63
2022/11/14 00:52:19;;;;;;;936.72;872.85;;;;;;;9.55;68.43;101891.28;694447;28;137283;-64
2022/11/14 00:52:59;;;;;;;925.67;862.10;;;;;;;9.54;68.34;101890.44;694351;28;135930;-64
2022/11/14 00:53:40;;;;;;;936.83;872.88;;;;;;;9.52;68.29;101892.41;693769;28;138317;-63
2022/11/14 00:54:19;;;;;;;926.55;863.05;;;;;;;9.52;68.53;101889.72;694736;28;135909;-64
2022/11/14 00:54:59;;;;;;;928.50;864.60;;;;;;;9.49;68.49;101879.19;694231;28;136951;-63
2022/11/14 00:55:40;;;;;;;936.35;872.45;;;;;;;9.51;68.41;101885.31;691010;28;158678;-63
2022/11/14 00:56:20;;;;;;;947.20;882.83;;;;;;;9.52;68.75;101880.78;691696;28;137536;-64
2022/11/14 00:57:00;;;;;;;921.60;857.90;;;;;;;9.50;68.22;101883.63;690408;28;158743;-63
2022/11/14 00:57:42;;;;;;;929.75;865.92;;;;;;;9.52;68.30;101880.78;691700;28;138817;-63
2022/11/14 00:58:21;;;;;;;943.80;879.67;;;;;;;9.51;68.27;101888.03;694477;28;137654;-64
2022/11/14 00:59:02;;;;;;;913.38;849.97;;;;;;;9.50;68.16;101877.38;693418;28;156169;-63
2022/11/14 00:59:42;;;;;;;931.42;867.83;;;;;;;9.49;68.27;101884.59;694446;28;137792;-64
2022/11/14 01:00:22;;;;;;;926.22;862.78;;;;;;;9.49;68.56;101875.66;694384;28;137709;-63
2022/11/14 01:01:03;;;;;;;919.53;856.22;;;;;;;9.48;68.23;101877.53;693238;28;158895;-63
2022/11/14 01:01:42;;;;;;;932.50;868.80;;;;;;;9.47;68.64;101885.75;693824;28;158904;-64
2022/11/14 01:02:22;;;;;;;910.92;847.85;;;;;;;9.49;68.74;101875.66;694594;28;137373;-64
2022/11/14 01:03:03;;;;;;;926.78;863.25;;;;;;;9.48;68.61;101882.91;694708;28;137769;-64
2022/11/14 01:03:46;;;;;;;929.55;865.90;;;;;;;9.48;68.52;101882.03;695208;28;106732;-63
2022/11/14 01:04:27;;;;;;;934.35;870.53;;;;;;;9.48;68.38;101872.13;694526;28;138879;-63
2022/11/14 01:05:07;;;;;;;928.63;864.58;;;;;;;9.49;68.71;101870.28;693807;28;135819;-63
2022/11/14 01:05:49;;;;;;;931.83;868.08;;;;;;;9.49;68.62;101879.19;693915;28;137352;-64
2022/11/14 01:06:29;;;;;;;947.83;883.55;;;;;;;9.48;68.34;101871.25;691558;28;137484;-63
2022/11/14 01:07:10;;;;;;;912.33;849.17;;;;;;;9.48;68.26;101869.44;691221;28;135997;-62
2022/11/14 01:07:49;;;;;;;934.15;870.25;;;;;;;9.49;68.29;101870.28;690240;28;138270;-64
2022/11/14 01:08:31;;;;;;;927.30;863.67;;;;;;;9.50;68.48;101866.59;691687;28;138210;-63
2022/11/14 01:09:11;;;;;;;928.53;864.92;;;;;;;9.49;68.59;101873.81;691114;28;157297;-64
2022/11/14 01:09:52;;;;;;;941.45;877.50;;;;;;;9.49;68.48;101873.81;691590;28;135841;-63
2022/11/14 01:10:31;;;;;;;933.47;869.78;;;;;;;9.50;68.25;101874.69;691741;28;137667;-63
2022/11/14 01:11:16;;;;;;;932.08;868.20;;;;;;;9.46;68.43;101868.69;691490;28;138459;-63
2022/11/14 01:11:56;;;;;;;927.13;863.58;;;;;;;9.47;68.28;101870.41;691704;28;135984;-64
2022/11/14 01:12:36;;;;;;;931.20;867.40;;;;;;;9.49;68.68;101870.28;691456;28;137255;-64
2022/11/14 01:13:19;;;;;;;917.55;854.25;;;;;;;9.48;68.78;101866.72;691844;28;137233;-63
2022/11/14 01:13:59;;;;;;;937.08;873.08;;;;;;;9.46;68.43;101868.69;691186;28;179153;-64
2022/11/14 01:14:39;;;;;;;927.35;863.72;;;;;;;9.47;68.47;101870.41;693599;28;160617;-64
2022/11/14 01:15:20;;;;;;;942.25;878.22;;;;;;;9.44;68.82;101864.47;691860;28;137625;-63
2022/11/14 01:16:00;;;;;;;924.28;860.72;;;;;;;9.48;68.41;101864.03;691812;28;137552;-63
2022/11/14 01:16:41;;;;;;;933.85;870.08;;;;;;;9.47;68.38;101864.19;691562;28;137535;-63
2022/11/14 01:17:20;;;;;;;930.65;866.47;;;;;;;9.46;68.38;101860.59;693674;28;138791;-64
2022/11/14 01:18:00;;;;;;;920.20;856.75;;;;;;;9.43;68.71;101860.06;694444;28;138697;-63
2022/11/14 01:18:41;;;;;;;941.35;877.38;;;;;;;9.44;68.51;101859.91;694040;28;137384;-63
2022/11/14 01:19:21;;;;;;;931.38;867.72;;;;;;;9.39;68.62;101854.09;694525;28;139016;-64
2022/11/14 01:20:02;;;;;;;919.90;856.55;;;;;;;9.45;68.57;101855.34;694709;28;136012;-63
2022/11/14 01:20:43;;;;;;;927.80;864.13;;;;;;;9.41;68.79;101853.97;688954;28;138631;-63
2022/11/14 01:21:28;;;;;;;908.70;845.65;;;;;;;9.44;68.78;101857.22;691719;28;62698;-64
2022/11/14 01:22:08;;;;;;;943.03;878.92;;;;;;;9.45;68.46;101848.13;690721;28;137331;-64
2022/11/14 01:22:48;;;;;;;924.15;860.55;;;;;;;9.42;68.76;101853.81;691681;28;137413;-63
2022/11/14 01:23:28;;;;;;;926.70;863.13;;;;;;;9.43;68.75;101855.50;691774;28;137708;-63
2022/11/14 01:24:08;;;;;;;932.15;868.35;;;;;;;9.43;68.59;101849.25;688791;28;156385;-64
2022/11/14 01:24:48;;;;;;;926.15;862.63;;;;;;;9.43;68.51;101850.09;690941;28;138133;-63
2022/11/14 01:25:28;;;;;;;921.40;857.92;;;;;;;9.43;68.62;101849.25;691407;28;139133;-63
2022/11/14 01:26:12;;;;;;;916.92;853.63;;;;;;;9.43;68.99;101847.41;691562;28;135995;-63
2022/11/14 01:26:53;;;;;;;937.85;873.78;;;;;;;9.45;68.89;101845.44;691636;28;138000;-63
2022/11/14 01:27:34;;;;;;;932.40;868.55;;;;;;;9.39;68.64;101832.53;694397;28;135956;-63
2022/11/14 01:28:16;;;;;;;933.35;869.67;;;;;;;9.43;68.47;101838.47;694551;28;137677;-64
2022/11/14 01:28:58;;;;;;;935.10;871.33;;;;;;;9.42;68.59;101848.41;690963;28;157757;-63
2022/11/14 01:29:38;;;;;;;921.92;858.53;;;;;;;9.41;68.88;101841.31;691697;28;136106;-63
2022/11/14 01:30:19;;;;;;;938.53;874.42;;;;;;;9.43;68.69;101852.81;691812;28;135930;-63
2022/11/14 01:31:07;;;;;;;921.13;857.72;;;;;;;9.40;68.69;101847.69;691759;28;135814;-63
2022/11/14 01:31:48;;;;;;;926.83;863.25;;;;;;;9.41;68.74;101848.56;694003;28;135941;-63
2022/11/14 01:32:27;;;;;;;923.95;860.42;;;;;;;9.43;68.68;101849.25;694312;28;138584;-63
2022/11/14 01:33:08;;;;;;;941.17;877.13;;;;;;;9.41;68.86;101852.09;694395;28;137549;-63
2022/11/14 01:33:49;;;;;;;921.95;858.53;;;;;;;9.40;68.69;101850.38;690439;28;160507;-63
2022/11/14 01:34:28;;;;;;;922.58;859.15;;;;;;;9.41;68.82;101848.56;691646;28;138611;-63
2022/11/14 01:35:09;;;;;;;921.88;858.42;;;;;;;9.40;69.04;101849.53;690814;28;160865;-63
2022/11/14 01:35:48;;;;;;;921.15;857.67;;;;;;;9.38;68.67;101847.84;691598;28;138657;-64
2022/11/14 01:36:28;;;;;;;931.17;867.42;;;;;;;9.40;68.67;101853.09;691521;28;137310;-63
2022/11/14 01:37:09;;;;;;;932.97;869.03;;;;;;;9.39;68.75;101851.41;691208;28;137976;-63
2022/11/14 01:37:49;;;;;;;924.10;860.70;;;;;;;9.36;68.92;101849.84;691598;28;137397;-63
2022/11/14 01:38:28;;;;;;;917.63;854.40;;;;;;;9.37;69.06;101854.25;691547;28;139046;-63
2022/11/14 01:39:09;;;;;;;921.53;858.13;;;;;;;9.37;68.89;101848.84;688137;28;157600;-64
2022/11/14 01:39:49;;;;;;;926.40;862.75;;;;;;;9.32;68.61;101847.56;689425;28;136154;-64
2022/11/14 01:40:29;;;;;;;915.53;852.30;;;;;;;9.34;68.97;101851.81;690836;28;159813;-63
2022/11/14 01:41:12;;;;;;;934.83;870.92;;;;;;;9.35;69.08;101847.28;692164;28;118436;-63
2022/11/14 01:41:52;;;;;;;917.88;854.50;;;;;;;9.30;68.68;101845.00;690954;28;153628;-64
2022/11/14 01:42:33;;;;;;;935.00;871.10;;;;;;;9.32;68.98;101848.41;691304;28;137092;-64
2022/11/14 01:43:27;;;;;;;927.60;863.90;;;;;;;9.30;68.82;101844.16;691528;28;137526;-63
2022/11/14 01:44:13;;;;;;;909.28;846.22;;;;;;;9.32;69.17;101840.31;690792;28;156217;-63
2022/11/14 01:44:53;;;;;;;938.28;874.28;;;;;;;9.32;68.84;101836.78;693132;28;160037;-63
2022/11/14 01:45:50;;;;;;;928.90;865.13;;;;;;;9.36;68.72;101846.28;694300;28;136118;-64
2022/11/14 01:46:32;;;;;;;924.33;860.92;;;;;;;9.37;68.99;101847.97;693997;28;136006;-63
2022/11/14 01:47:18;;;;;;;912.25;849.15;;;;;;;9.29;68.84;101834.34;693995;28;138079;-63
2022/11/14 01:47:58;;;;;;;936.53;872.53;;;;;;;9.32;69.00;101836.78;691782;28;137495;-64
2022/11/14 01:48:41;;;;;;;918.67;855.28;;;;;;;9.27;69.03;101834.50;688083;28;137664;-63
2022/11/14 01:49:23;;;;;;;917.05;853.85;;;;;;;9.28;69.36;101829.94;688608;28;137546;-63
2022/11/14 01:50:05;;;;;;;932.83;868.95;;;;;;;9.31;69.35;101832.38;688731;28;138125;-63
2022/11/14 01:50:55;;;;;;;914.40;851.17;;;;;;;9.31;69.49;101826.97;688562;28;135236;-62
2022/11/14 01:51:39;;;;;;;934.80;870.80;;;;;;;9.32;69.52;101839.47;688492;28;136015;-63
2022/11/14 01:52:22;;;;;;;934.15;870.20;;;;;;;9.31;69.51;101838.63;688547;28;138227;-63
2022/11/14 01:53:02;;;;;;;929.88;866.08;;;;;;;9.33;69.32;101843.88;693404;28;161965;-63
2022/11/14 01:53:42;;;;;;;927.92;864.25;;;;;;;9.29;69.21;101831.66;695084;28;137550;-63
2022/11/14 01:54:27;;;;;;;930.35;866.67;;;;;;;9.32;69.42;101837.63;696757;28;137460;-63
2022/11/14 01:55:08;;;;;;;923.00;859.58;;;;;;;9.26;69.52;101826.56;694421;28;135985;-63
2022/11/14 01:55:49;;;;;;;919.50;856.28;;;;;;;9.30;69.24;101827.97;694282;28;138391;-63
2022/11/14 01:56:33;;;;;;;922.90;859.33;;;;;;;9.28;69.70;101828.13;693888;28;137506;-63
2022/11/14 01:57:16;;;;;;;931.92;867.83;;;;;;;9.32;69.46;101826.84;694000;28;135492;-63
2022/11/14 01:57:57;;;;;;;921.05;857.65;;;;;;;9.29;69.39;101824.41;691521;28;138597;-64
2022/11/14 01:58:38;;;;;;;922.45;858.97;;;;;;;9.32;69.20;101823.28;690941;28;137876;-63
2022/11/14 01:59:23;;;;;;;914.90;851.65;;;;;;;9.34;69.08;101824.88;692846;28;137231;-63
2022/11/14 02:00:06;;;;;;;925.03;861.55;;;;;;;9.32;69.04;101821.44;696436;28;159039;-63
2022/11/14 02:00:45;;;;;;;927.78;864.08;;;;;;;9.31;69.17;101829.66;696932;28;138179;-63
2022/11/14 02:01:27;;;;;;;930.53;866.92;;;;;;;9.30;69.23;101823.44;697009;28;137079;-63
2022/11/14 02:02:11;;;;;;;933.55;869.70;;;;;;;9.30;69.56;101820.75;697054;28;135724;-62
2022/11/14 02:02:52;;;;;;;909.42;846.25;;;;;;;9.29;69.51;101820.88;696911;28;137546;-63
2022/11/14 02:03:32;;;;;;;932.35;868.55;;;;;;;9.32;69.41;101824.13;696948;28;137676;-62
2022/11/14 02:04:17;;;;;;;938.95;874.95;;;;;;;9.32;69.45;101813.34;697144;28;96331;-63
2022/11/14 02:05:00;;;;;;;934.63;870.40;;;;;;;9.35;69.34;101823.84;693271;28;138416;-63
2022/11/14 02:05:41;;;;;;;924.63;860.92;;;;;;;9.34;69.41;101813.22;694056;28;137381;-63
2022/11/14 02:06:24;;;;;;;925.88;862.28;;;;;;;9.35;69.43;101817.63;691248;28;138683;-62
2022/11/14 02:07:04;;;;;;;913.22;849.75;;;;;;;9.37;69.45;101815.63;690833;28;135966;-63
2022/11/14 02:07:44;;;;;;;933.75;869.88;;;;;;;9.36;69.11;101814.78;691258;28;137733;-63
2022/11/14 02:08:25;;;;;;;927.83;864.13;;;;;;;9.36;69.48;101809.38;691510;28;137676;-63
2022/11/14 02:09:06;;;;;;;929.78;865.97;;;;;;;9.36;69.46;101820.16;691128;28;180092;-63
2022/11/14 02:09:47;;;;;;;917.33;854.03;;;;;;;9.35;69.42;101807.69;692916;28;161218;-63
2022/11/14 02:10:28;;;;;;;911.35;848.13;;;;;;;9.36;69.21;101816.63;693606;28;137562;-63
2022/11/14 02:11:09;;;;;;;927.53;863.80;;;;;;;9.35;69.60;101807.69;693982;28;137687;-63
2022/11/14 02:11:51;;;;;;;912.92;849.58;;;;;;;9.35;69.25;101810.38;693985;28;137507;-63
2022/11/14 02:12:32;;;;;;;920.47;856.88;;;;;;;9.36;69.25;101814.78;693118;28;160667;-63
2022/11/14 02:13:12;;;;;;;924.92;861.42;;;;;;;9.37;69.48;101811.09;694303;28;135984;-62
2022/11/14 02:13:51;;;;;;;922.75;859.38;;;;;;;9.36;69.52;101804.00;693006;28;161063;-63
2022/11/14 02:14:34;;;;;;;915.28;852.05;;;;;;;9.37;69.39;101799.44;694202;28;138506;-63
2022/11/14 02:15:14;;;;;;;925.67;862.08;;;;;;;9.34;69.40;101800.59;694352;28;137346;-63
2022/11/14 02:15:55;;;;;;;925.22;861.72;;;;;;;9.38;69.34;101793.06;691648;28;137529;-63
2022/11/14 02:16:34;;;;;;;924.70;861.25;;;;;;;9.38;69.21;101799.31;691390;28;138820;-63
2022/11/14 02:17:17;;;;;;;932.13;868.05;;;;;;;9.40;69.35;101798.31;692307;28;160294;-63
2022/11/14 02:17:57;;;;;;;923.78;860.20;;;;;;;9.38;69.22;101795.75;694284;28;138127;-63
2022/11/14 02:18:38;;;;;;;936.17;872.25;;;;;;;9.35;69.13;101786.09;693726;28;138303;-63
2022/11/14 02:19:17;;;;;;;923.05;859.55;;;;;;;9.38;69.60;101791.22;694270;28;137363;-63
2022/11/14 02:20:23;;;;;;;934.38;870.50;;;;;;;9.33;69.59;101789.97;694255;28;137650;-63
2022/11/14 02:21:03;;;;;;;923.72;860.20;;;;;;;9.40;68.95;101792.91;694254;28;137511;-63
2022/11/14 02:21:44;;;;;;;934.63;870.60;;;;;;;9.40;68.98;101801.00;691378;28;137975;-63
2022/11/14 02:22:24;;;;;;;931.65;867.88;;;;;;;9.40;69.33;101795.63;691435;28;137552;-63
2022/11/14 02:23:05;;;;;;;920.25;856.97;;;;;;;9.41;69.44;101797.34;691513;28;137213;-63
2022/11/14 02:23:44;;;;;;;922.45;859.03;;;;;;;9.41;69.00;101794.63;692211;28;138752;-63
2022/11/14 02:24:25;;;;;;;933.92;870.00;;;;;;;9.41;69.17;101800.03;694985;28;137480;-63
2022/11/14 02:25:06;;;;;;;914.80;851.45;;;;;;;9.38;68.97;101795.75;692543;28;137719;-63
2022/11/14 02:25:45;;;;;;;927.65;864.00;;;;;;;9.42;69.28;101801.72;693038;28;160482;-63
2022/11/14 02:26:26;;;;;;;917.88;854.42;;;;;;;9.41;69.10;101791.94;695535;28;85214;-63
2022/11/14 02:27:07;;;;;;;935.05;871.03;;;;;;;9.40;68.75;101788.38;696216;28;61546;-63
2022/11/14 02:27:48;;;;;;;934.17;870.28;;;;;;;9.37;69.00;101784.13;694205;28;135722;-63
2022/11/14 02:28:29;;;;;;;922.97;859.50;;;;;;;9.42;68.78;101786.41;690645;28;161721;-62
2022/11/14 02:29:10;;;;;;;934.90;871.08;;;;;;;9.41;69.14;101790.09;688104;28;157173;-63
2022/11/14 02:29:50;;;;;;;924.45;860.78;;;;;;;9.41;69.01;101783.84;688613;28;135772;-62
2022/11/14 02:30:30;;;;;;;929.53;865.72;;;;;;;9.40;69.16;101791.06;688646;28;138628;-63
2022/11/14 02:31:10;;;;;;;917.80;854.47;;;;;;;9.40;68.83;101788.38;688808;28;137405;-63
2022/11/14 02:32:04;;;;;;;730.80;673.78;;;;;;;9.39;69.09;101784.00;700469;27;20687;-64
2022/11/14 02:32:44;;;;;;;880.20;818.35;;;;;;;9.37;69.19;101780.56;696504;28;137945;-64
2022/11/14 02:33:23;;;;;;;857.60;796.30;;;;;;;9.33;69.02;101771.09;693911;28;135958;-63
2022/11/14 02:34:04;;;;;;;849.00;787.80;;;;;;;9.33;69.27;101779.19;687474;28;157243;-63
2022/11/14 02:34:44;;;;;;;835.65;774.90;;;;;;;9.29;69.50;101767.81;688092;28;138173;-62
2022/11/14 02:35:24;;;;;;;868.65;806.90;;;;;;;9.30;69.57;101774.91;690730;28;140032;-63
2022/11/14 02:36:05;;;;;;;867.05;805.33;;;;;;;9.32;69.41;101778.31;689934;28;160866;-63
2022/11/14 02:36:44;;;;;;;865.33;803.63;;;;;;;9.33;69.50;101773.78;687169;28;160627;-63
2022/11/14 02:37:24;;;;;;;874.47;812.35;;;;;;;9.33;69.59;101773.78;685717;28;138672;-63
2022/11/14 02:38:05;;;;;;;869.45;806.85;;;;;;;9.33;69.36;101768.38;684487;28;138194;-63
2022/11/14 02:38:45;;;;;;;885.42;823.15;;;;;;;9.32;69.58;101767.50;685005;28;137803;-64
2022/11/14 02:39:25;;;;;;;874.65;812.78;;;;;;;9.35;69.24;101769.09;687815;28;137849;-64
2022/11/14 02:40:07;;;;;;;875.15;813.40;;;;;;;9.34;69.55;101767.38;686083;28;137518;-62
2022/11/14 02:40:47;;;;;;;860.58;799.15;;;;;;;9.31;69.36;101762.28;685518;28;135968;-65
2022/11/14 02:41:28;;;;;;;849.78;788.47;;;;;;;9.34;69.10;101767.38;687060;28;138690;-63
2022/11/14 02:42:07;;;;;;;869.85;808.05;;;;;;;9.32;69.13;101770.22;688045;28;138614;-63
2022/11/14 02:42:47;;;;;;;856.53;795.17;;;;;;;9.32;69.33;101764.81;688268;28;137491;-63
2022/11/14 02:43:28;;;;;;;870.03;808.25;;;;;;;9.33;69.59;101768.38;685594;28;137382;-63
2022/11/14 02:44:08;;;;;;;877.13;815.13;;;;;;;9.31;69.61;101764.97;684644;28;155061;-63
2022/11/14 02:44:48;;;;;;;875.30;813.40;;;;;;;9.32;69.33;101764.81;688087;28;136131;-64
2022/11/14 02:45:29;;;;;;;864.45;802.85;;;;;;;9.29;69.35;101765.09;688054;28;137682;-64
2022/11/14 02:46:08;;;;;;;854.95;793.67;;;;;;;9.34;69.45;101762.84;687476;28;135967;-63
2022/11/14 02:46:48;;;;;;;868.50;806.80;;;;;;;9.33;69.10;101763.84;685559;28;137523;-64
2022/11/14 02:47:30;;;;;;;865.35;803.80;;;;;;;9.33;69.55;101763.00;685404;28;137331;-63
2022/11/14 02:48:10;;;;;;;879.78;817.78;;;;;;;9.34;69.39;101760.16;684615;28;161244;-63
2022/11/14 02:48:51;;;;;;;852.40;791.13;;;;;;;9.35;69.37;101766.38;685137;28;138640;-64
2022/11/14 02:49:34;;;;;;;870.65;808.95;;;;;;;9.33;69.15;101760.31;688080;28;61350;-64
2022/11/14 02:50:13;;;;;;;854.17;792.88;;;;;;;9.32;69.31;101758.59;685602;28;137270;-64
2022/11/14 02:50:54;;;;;;;857.67;796.17;;;;;;;9.32;69.49;101763.97;685439;28;135928;-63
2022/11/14 02:51:34;;;;;;;862.65;801.05;;;;;;;9.30;69.46;101757.91;685546;28;137694;-64
2022/11/14 02:52:13;;;;;;;860.45;798.90;;;;;;;9.30;69.27;101761.44;685402;28;138355;-66
2022/11/14 02:52:54;;;;;;;845.67;784.50;;;;;;;9.31;69.35;101762.28;685380;28;137677;-63
2022/11/14 02:53:34;;;;;;;874.95;813.08;;;;;;;9.31;69.51;101760.44;685192;28;135860;-64
2022/11/14 02:54:14;;;;;;;852.85;791.67;;;;;;;9.31;69.36;101754.19;686472;28;135894;-64
2022/11/14 02:54:55;;;;;;;881.97;819.83;;;;;;;9.31;69.34;101754.19;687289;28;160624;-64
2022/11/14 02:55:34;;;;;;;868.55;806.85;;;;;;;9.30;69.28;101756.03;688265;28;137545;-64
2022/11/14 02:56:15;;;;;;;873.10;811.15;;;;;;;9.29;69.12;101753.47;687889;28;137077;-63
2022/11/14 02:56:55;;;;;;;870.13;808.08;;;;;;;9.28;69.39;101755.34;687413;28;136274;-64
2022/11/14 02:57:34;;;;;;;885.95;823.65;;;;;;;9.28;69.29;101752.66;688129;28;135842;-64
2022/11/14 02:58:15;;;;;;;854.58;793.20;;;;;;;9.22;69.25;101739.75;688004;28;136082;-64
2022/11/14 02:58:55;;;;;;;881.67;819.50;;;;;;;9.24;69.35;101751.22;687301;28;157150;-64
2022/11/14 02:59:35;;;;;;;853.17;791.92;;;;;;;9.24;69.25;101750.38;688059;28;137336;-64
2022/11/14 03:00:16;;;;;;;827.17;766.45;;;;;;;9.22;69.61;101753.22;688797;28;121773;-64
2022/11/14 03:00:56;;;;;;;860.17;798.60;;;;;;;9.22;69.55;101744.28;688000;28;136992;-64
2022/11/14 03:01:36;;;;;;;863.63;802.10;;;;;;;9.20;69.36;101745.28;687984;28;137347;-64
2022/11/14 03:02:16;;;;;;;868.22;806.63;;;;;;;9.18;69.25;101743.69;688070;28;137155;-64
2022/11/14 03:02:58;;;;;;;870.40;808.60;;;;;;;9.16;69.67;101734.91;687883;28;137601;-64
2022/11/14 03:03:38;;;;;;;864.53;802.83;;;;;;;9.15;69.83;101735.91;687486;28;136006;-64
2022/11/14 03:04:18;;;;;;;852.20;791.03;;;;;;;9.17;69.75;101744.72;685930;28;135815;-64